createdAt,value
2018-12-20T00:01:39.684Z,6.70
2018-12-20T00:04:07.141Z,6.70
2018-12-20T00:06:34.743Z,6.70
2018-12-20T00:09:02.385Z,6.80
2018-12-20T00:11:29.893Z,6.80
2018-12-20T00:16:49.955Z,6.80
2018-12-20T00:19:17.424Z,6.80
2018-12-20T00:21:45.010Z,6.80
2018-12-20T00:24:12.548Z,7.00
2018-12-20T00:26:40.174Z,7.00
2018-12-20T00:29:07.716Z,7.00
2018-12-20T00:34:26.377Z,6.90
2018-12-20T00:36:53.913Z,6.90
2018-12-20T00:39:21.464Z,6.90
2018-12-20T00:41:51.512Z,7.00
2018-12-20T00:47:09.681Z,7.10
2018-12-20T00:52:27.732Z,7.10
2018-12-20T00:54:55.371Z,7.10
2018-12-20T00:57:22.985Z,7.10
2018-12-20T00:59:50.435Z,7.10
2018-12-20T01:02:18.019Z,7.10
2018-12-20T01:04:45.501Z,7.20
2018-12-20T01:07:12.952Z,7.10
2018-12-20T01:09:40.444Z,7.20
2018-12-20T01:12:07.963Z,7.20
2018-12-20T01:14:35.612Z,7.30
2018-12-20T01:17:03.134Z,7.20
2018-12-20T01:19:30.812Z,7.40
2018-12-20T01:21:58.360Z,7.50
2018-12-20T01:24:26.018Z,7.50
2018-12-20T01:26:53.984Z,7.50
2018-12-20T01:29:21.580Z,7.60
2018-12-20T01:31:49.220Z,7.60
2018-12-20T01:34:16.738Z,7.60
2018-12-20T01:36:44.183Z,7.60
2018-12-20T01:39:11.770Z,7.50
2018-12-20T01:41:39.294Z,7.50
2018-12-20T01:44:06.882Z,7.50
2018-12-20T01:46:34.421Z,7.40
2018-12-20T01:49:02.012Z,7.40
2018-12-20T01:51:29.559Z,7.40
2018-12-20T01:53:57.214Z,7.50
2018-12-20T01:56:24.865Z,7.40
2018-12-20T01:58:52.396Z,7.40
2018-12-20T02:01:19.823Z,7.50
2018-12-20T02:03:47.310Z,7.60
2018-12-20T02:06:14.856Z,7.60
2018-12-20T02:08:42.472Z,7.60
2018-12-20T02:11:10.061Z,7.60
2018-12-20T02:13:37.553Z,7.70
2018-12-20T02:16:05.005Z,7.70
2018-12-20T02:18:32.764Z,7.70
2018-12-20T02:21:00.459Z,7.70
2018-12-20T02:23:27.879Z,7.60
2018-12-20T02:25:55.636Z,7.60
2018-12-20T02:28:23.328Z,7.60
2018-12-20T02:30:50.845Z,7.60
2018-12-20T02:33:18.373Z,7.60
2018-12-20T02:35:45.834Z,7.60
2018-12-20T02:38:13.335Z,7.80
2018-12-20T02:40:40.866Z,7.70
2018-12-20T02:43:08.365Z,7.70
2018-12-20T02:45:35.807Z,7.70
2018-12-20T02:48:03.492Z,7.70
2018-12-20T02:50:31.083Z,7.70
2018-12-20T02:52:58.616Z,7.70
2018-12-20T02:55:26.377Z,7.60
2018-12-20T02:57:53.944Z,7.70
2018-12-20T03:00:21.484Z,7.70
2018-12-20T03:02:49.092Z,7.70
2018-12-20T03:05:16.603Z,7.80
2018-12-20T03:07:44.578Z,7.80
2018-12-20T03:10:12.272Z,7.80
2018-12-20T03:12:39.847Z,7.80
2018-12-20T03:15:07.723Z,7.80
2018-12-20T03:17:35.494Z,7.80
2018-12-20T03:20:03.993Z,7.80
2018-12-20T03:22:32.448Z,7.80
2018-12-20T03:25:00.219Z,7.70
2018-12-20T03:27:28.091Z,7.80
2018-12-20T03:29:55.556Z,7.80
2018-12-20T03:32:23.143Z,7.80
2018-12-20T03:34:50.803Z,7.80
2018-12-20T03:37:18.356Z,7.80
2018-12-20T03:39:46.067Z,7.90
2018-12-20T03:42:13.794Z,7.80
2018-12-20T03:44:41.728Z,7.80
2018-12-20T03:47:09.404Z,7.80
2018-12-20T03:49:37.119Z,7.80
2018-12-20T03:52:04.701Z,7.80
2018-12-20T03:54:32.342Z,7.80
2018-12-20T03:56:59.860Z,7.80
2018-12-20T03:59:27.378Z,7.80
2018-12-20T04:01:55.035Z,7.80
2018-12-20T04:04:22.891Z,7.80
2018-12-20T04:06:50.456Z,7.80
2018-12-20T04:09:17.976Z,7.80
2018-12-20T04:11:45.428Z,7.90
2018-12-20T04:14:12.957Z,7.90
2018-12-20T04:16:40.718Z,7.80
2018-12-20T04:19:08.254Z,7.80
2018-12-20T04:21:36.150Z,7.90
2018-12-20T04:24:04.046Z,7.80
2018-12-20T04:26:31.697Z,7.90
2018-12-20T04:28:59.395Z,7.90
2018-12-20T04:31:26.929Z,7.90
2018-12-20T04:33:54.415Z,7.80
2018-12-20T04:36:21.951Z,7.80
2018-12-20T04:38:49.503Z,7.90
2018-12-20T04:41:16.940Z,7.80
2018-12-20T04:43:44.448Z,7.80
2018-12-20T04:46:12.315Z,7.70
2018-12-20T04:48:39.936Z,7.70
2018-12-20T04:51:07.559Z,7.70
2018-12-20T04:53:35.240Z,7.70
2018-12-20T04:56:02.885Z,7.70
2018-12-20T04:58:30.477Z,7.60
2018-12-20T05:00:58.016Z,7.60
2018-12-20T05:03:25.580Z,7.50
2018-12-20T05:05:53.293Z,7.50
2018-12-20T05:08:20.849Z,7.60
2018-12-20T05:10:48.352Z,7.60
2018-12-20T05:13:16.053Z,7.60
2018-12-20T05:15:43.791Z,7.70
2018-12-20T05:18:12.228Z,7.60
2018-12-20T05:20:39.890Z,7.60
2018-12-20T05:23:07.556Z,7.60
2018-12-20T05:25:35.226Z,7.60
2018-12-20T05:28:02.932Z,7.60
2018-12-20T05:30:30.468Z,7.60
2018-12-20T05:32:58.019Z,7.60
2018-12-20T05:35:25.580Z,7.50
2018-12-20T05:37:53.133Z,7.60
2018-12-20T05:40:20.559Z,7.50
2018-12-20T05:42:48.148Z,7.50
2018-12-20T05:45:15.652Z,7.50
2018-12-20T05:47:43.335Z,7.40
2018-12-20T05:50:11.226Z,7.40
2018-12-20T05:52:38.881Z,7.40
2018-12-20T05:55:06.472Z,7.40
2018-12-20T05:57:33.988Z,7.50
2018-12-20T06:00:01.563Z,7.50
2018-12-20T06:02:29.151Z,7.50
2018-12-20T06:04:56.707Z,7.50
2018-12-20T06:07:24.142Z,7.50
2018-12-20T06:09:51.750Z,7.50
2018-12-20T06:12:19.443Z,7.50
2018-12-20T06:14:46.905Z,7.50
2018-12-20T06:17:14.451Z,7.50
2018-12-20T06:19:41.912Z,7.50
2018-12-20T06:22:09.354Z,7.50
2018-12-20T06:24:36.817Z,7.60
2018-12-20T06:27:04.262Z,7.50
2018-12-20T06:29:31.714Z,7.50
2018-12-20T06:31:59.176Z,7.40
2018-12-20T06:34:26.633Z,7.40
2018-12-20T06:36:54.060Z,7.40
2018-12-20T06:39:21.508Z,7.40
2018-12-20T06:41:48.951Z,7.40
2018-12-20T06:44:16.458Z,7.40
2018-12-20T06:46:50.196Z,7.50
2018-12-20T06:49:17.719Z,7.40
2018-12-20T06:51:45.157Z,7.40
2018-12-20T06:54:12.619Z,7.50
2018-12-20T06:56:40.167Z,7.50
2018-12-20T06:59:07.688Z,7.50
2018-12-20T07:01:35.149Z,7.60
2018-12-20T07:04:02.615Z,7.50
2018-12-20T07:06:30.095Z,7.40
2018-12-20T07:08:57.547Z,7.40
2018-12-20T07:11:25.186Z,7.30
2018-12-20T07:13:52.717Z,7.30
2018-12-20T07:16:20.155Z,7.30
2018-12-20T07:18:47.592Z,7.30
2018-12-20T07:21:15.108Z,7.30
2018-12-20T07:23:42.567Z,7.30
2018-12-20T07:26:10.015Z,7.20
2018-12-20T07:28:37.491Z,7.20
2018-12-20T07:31:04.949Z,7.20
2018-12-20T07:33:32.416Z,7.20
2018-12-20T07:35:59.881Z,7.20
2018-12-20T07:38:27.345Z,7.20
2018-12-20T07:40:54.791Z,7.20
2018-12-20T07:43:22.249Z,7.20
2018-12-20T07:45:49.696Z,7.30
2018-12-20T07:48:18.145Z,7.30
2018-12-20T07:50:45.677Z,7.40
2018-12-20T07:53:13.109Z,7.40
2018-12-20T07:55:40.565Z,7.30
2018-12-20T07:58:08.012Z,7.30
2018-12-20T08:00:36.452Z,7.20
2018-12-20T08:03:04.683Z,7.20
2018-12-20T08:05:32.125Z,7.30
2018-12-20T08:07:59.564Z,7.30
2018-12-20T08:10:27.031Z,7.30
2018-12-20T08:12:54.485Z,7.30
2018-12-20T08:15:21.921Z,7.30
2018-12-20T08:17:49.388Z,7.40
2018-12-20T08:20:16.807Z,7.50
2018-12-20T08:22:44.263Z,7.50
2018-12-20T08:25:11.713Z,7.40
2018-12-20T08:27:39.224Z,7.30
2018-12-20T08:30:06.990Z,7.40
2018-12-20T08:32:34.564Z,7.40
2018-12-20T08:35:02.094Z,7.50
2018-12-20T08:37:29.551Z,7.60
2018-12-20T08:39:57.007Z,7.60
2018-12-20T08:42:24.424Z,7.60
2018-12-20T08:44:51.926Z,7.60
2018-12-20T08:47:19.382Z,7.70
2018-12-20T08:49:46.846Z,7.70
2018-12-20T08:52:14.281Z,7.60
2018-12-20T08:54:41.795Z,7.60
2018-12-20T08:57:09.247Z,7.60
2018-12-20T08:59:36.702Z,7.70
2018-12-20T09:02:04.156Z,7.80
2018-12-20T09:04:31.632Z,7.80
2018-12-20T09:06:59.088Z,7.90
2018-12-20T09:09:26.550Z,8.00
2018-12-20T09:11:53.988Z,8.00
2018-12-20T09:14:21.446Z,8.00
2018-12-20T09:16:48.890Z,8.20
2018-12-20T09:19:16.331Z,8.20
2018-12-20T09:21:43.776Z,8.30
2018-12-20T09:24:11.210Z,8.40
2018-12-20T09:26:38.855Z,8.40
2018-12-20T09:29:06.311Z,8.60
2018-12-20T09:31:33.823Z,8.60
2018-12-20T09:34:01.261Z,8.70
2018-12-20T09:36:28.703Z,8.80
2018-12-20T09:38:56.175Z,8.80
2018-12-20T09:41:23.663Z,8.90
2018-12-20T09:43:51.111Z,8.90
2018-12-20T09:46:18.578Z,9.00
2018-12-20T09:48:46.426Z,8.90
2018-12-20T09:51:14.101Z,8.90
2018-12-20T09:53:41.539Z,9.00
2018-12-20T09:56:09.080Z,9.00
2018-12-20T09:58:36.535Z,9.10
2018-12-20T10:01:04.043Z,9.00
2018-12-20T10:03:31.523Z,9.00
2018-12-20T10:05:59.009Z,8.90
2018-12-20T10:08:26.449Z,9.10
2018-12-20T10:10:53.900Z,9.10
2018-12-20T10:13:21.351Z,9.00
2018-12-20T10:15:48.790Z,9.10
2018-12-20T10:18:16.235Z,9.00
2018-12-20T10:20:52.151Z,9.00
2018-12-20T10:23:19.623Z,9.00
2018-12-20T10:25:47.053Z,9.00
2018-12-20T10:28:14.499Z,9.00
2018-12-20T10:30:43.981Z,9.10
2018-12-20T10:33:11.409Z,9.00
2018-12-20T10:35:38.851Z,9.10
2018-12-20T10:38:06.303Z,9.20
2018-12-20T10:40:34.331Z,9.20
2018-12-20T10:43:01.810Z,9.20
2018-12-20T10:45:29.257Z,9.20
2018-12-20T10:47:56.773Z,9.20
2018-12-20T10:50:24.227Z,9.30
2018-12-20T10:52:51.685Z,9.30
2018-12-20T10:55:19.141Z,9.40
2018-12-20T10:57:46.697Z,9.40
2018-12-20T11:00:14.209Z,9.50
2018-12-20T11:02:47.309Z,9.50
2018-12-20T11:05:20.508Z,9.50
2018-12-20T11:07:53.710Z,9.40
2018-12-20T11:10:26.014Z,9.50
2018-12-20T11:12:53.503Z,9.50
2018-12-20T11:15:20.941Z,9.50
2018-12-20T11:17:48.446Z,9.50
2018-12-20T11:20:15.985Z,9.50
2018-12-20T11:22:43.468Z,9.70
2018-12-20T11:25:11.024Z,9.80
2018-12-20T11:27:38.475Z,9.70
2018-12-20T11:30:07.743Z,9.80
2018-12-20T11:32:35.224Z,9.80
2018-12-20T11:35:02.741Z,9.90
2018-12-20T11:37:30.185Z,9.80
2018-12-20T11:39:59.795Z,9.90
2018-12-20T11:42:27.074Z,10.10
2018-12-20T11:44:54.549Z,9.90
2018-12-20T11:47:26.953Z,9.70
2018-12-20T11:49:54.441Z,9.60
2018-12-20T11:52:21.890Z,9.70
2018-12-20T11:54:49.386Z,9.70
2018-12-20T11:57:16.823Z,9.60
2018-12-20T11:59:44.253Z,9.60
2018-12-20T12:02:11.704Z,9.70
2018-12-20T12:04:39.146Z,9.70
2018-12-20T12:07:06.626Z,9.70
2018-12-20T12:09:34.135Z,9.50
2018-12-20T12:12:01.571Z,9.50
2018-12-20T12:14:29.042Z,9.50
2018-12-20T12:16:56.478Z,9.70
2018-12-20T12:19:24.222Z,9.80
2018-12-20T12:21:51.721Z,9.90
2018-12-20T12:24:19.159Z,9.80
2018-12-20T12:26:46.623Z,9.90
2018-12-20T12:29:14.129Z,9.70
2018-12-20T12:31:41.587Z,9.90
2018-12-20T12:34:09.019Z,9.80
2018-12-20T12:36:36.481Z,9.80
2018-12-20T12:39:06.554Z,9.70
2018-12-20T12:41:34.078Z,9.80
2018-12-20T12:44:01.513Z,9.70
2018-12-20T12:46:29.006Z,9.70
2018-12-20T12:48:56.448Z,9.70
2018-12-20T12:51:23.907Z,9.50
2018-12-20T12:53:51.346Z,9.50
2018-12-20T12:56:18.767Z,9.30
2018-12-20T12:58:46.201Z,9.40
2018-12-20T13:01:13.707Z,9.30
2018-12-20T13:03:41.137Z,9.20
2018-12-20T13:06:08.610Z,9.30
2018-12-20T13:08:36.045Z,9.20
2018-12-20T13:11:03.558Z,9.20
2018-12-20T13:13:31.087Z,9.30
2018-12-20T13:15:58.542Z,9.30
2018-12-20T13:18:25.973Z,9.30
2018-12-20T13:20:53.448Z,9.20
2018-12-20T13:23:20.883Z,9.00
2018-12-20T13:25:48.328Z,8.90
2018-12-20T13:28:15.794Z,8.90
2018-12-20T13:30:43.298Z,8.90
2018-12-20T13:33:10.745Z,8.80
2018-12-20T13:35:38.192Z,8.80
2018-12-20T13:38:05.673Z,8.70
2018-12-20T13:40:33.115Z,8.70
2018-12-20T13:43:00.550Z,8.70
2018-12-20T13:45:28.002Z,8.70
2018-12-20T13:47:55.427Z,8.70
2018-12-20T13:50:22.881Z,8.80
2018-12-20T13:52:50.323Z,8.90
2018-12-20T13:55:17.760Z,8.90
2018-12-20T13:57:45.224Z,9.00
2018-12-20T14:00:14.507Z,9.00
2018-12-20T14:02:42.099Z,9.00
2018-12-20T14:05:09.598Z,9.00
2018-12-20T14:07:37.048Z,8.90
2018-12-20T14:10:05.098Z,8.60
2018-12-20T14:12:32.538Z,8.50
2018-12-20T14:14:59.999Z,8.30
2018-12-20T14:17:27.438Z,8.30
2018-12-20T14:19:54.877Z,8.20
2018-12-20T14:22:22.325Z,8.10
2018-12-20T14:24:49.778Z,8.10
2018-12-20T14:27:17.226Z,8.10
2018-12-20T14:29:44.679Z,7.90
2018-12-20T14:32:12.142Z,7.90
2018-12-20T14:34:39.584Z,8.00
2018-12-20T14:37:07.049Z,7.90
2018-12-20T14:39:34.495Z,7.90
2018-12-20T14:42:01.990Z,7.80
2018-12-20T14:44:29.436Z,7.70
2018-12-20T14:46:56.890Z,7.60
2018-12-20T14:49:24.343Z,7.40
2018-12-20T14:51:51.800Z,7.40
2018-12-20T14:54:19.253Z,7.40
2018-12-20T14:56:46.740Z,7.20
2018-12-20T14:59:14.183Z,7.10
2018-12-20T15:01:41.611Z,7.00
2018-12-20T15:04:09.046Z,6.90
2018-12-20T15:06:36.758Z,6.90
2018-12-20T15:09:06.412Z,6.90
2018-12-20T15:11:34.812Z,6.80
2018-12-20T15:14:02.271Z,6.80
2018-12-20T15:16:29.696Z,6.80
2018-12-20T15:18:57.153Z,6.80
2018-12-20T15:21:24.628Z,6.80
2018-12-20T15:23:52.079Z,6.90
2018-12-20T15:26:21.502Z,6.90
2018-12-20T15:28:48.937Z,7.00
2018-12-20T15:31:16.401Z,7.00
2018-12-20T15:33:43.841Z,7.10
2018-12-20T15:36:11.297Z,7.10
2018-12-20T15:38:38.873Z,7.10
2018-12-20T15:41:06.306Z,7.20
2018-12-20T15:43:33.781Z,7.20
2018-12-20T15:46:01.229Z,7.20
2018-12-20T15:48:28.652Z,7.20
2018-12-20T15:50:56.187Z,7.20
2018-12-20T15:53:23.671Z,7.20
2018-12-20T15:55:51.109Z,7.10
2018-12-20T15:58:20.042Z,7.20
2018-12-20T16:00:47.787Z,7.20
2018-12-20T16:03:15.224Z,7.20
2018-12-20T16:05:42.734Z,7.10
2018-12-20T16:08:10.169Z,7.10
2018-12-20T16:10:37.609Z,7.10
2018-12-20T16:13:05.101Z,7.10
2018-12-20T16:15:32.547Z,7.00
2018-12-20T16:17:59.990Z,7.00
2018-12-20T16:20:27.431Z,7.00
2018-12-20T16:22:54.878Z,7.00
2018-12-20T16:25:22.313Z,7.00
2018-12-20T16:27:51.055Z,6.90
2018-12-20T16:30:18.486Z,6.90
2018-12-20T16:32:45.940Z,6.90
2018-12-20T16:35:13.405Z,6.90
2018-12-20T16:37:40.899Z,6.80
2018-12-20T16:40:08.474Z,6.90
2018-12-20T16:42:35.914Z,6.90
2018-12-20T16:45:04.409Z,6.90
2018-12-20T16:47:31.847Z,6.90
2018-12-20T16:49:59.305Z,6.80
2018-12-20T16:52:26.723Z,6.90
2018-12-20T16:54:54.208Z,6.90
2018-12-20T16:57:21.638Z,6.90
2018-12-20T16:59:49.088Z,6.90
2018-12-20T17:02:16.540Z,6.90
2018-12-20T17:04:43.991Z,6.90
2018-12-20T17:07:11.468Z,6.80
2018-12-20T17:09:38.983Z,6.70
2018-12-20T17:12:06.511Z,6.70
2018-12-20T17:14:34.010Z,6.70
2018-12-20T17:17:01.461Z,6.80
2018-12-20T17:19:28.927Z,6.90
2018-12-20T17:21:56.387Z,6.90
2018-12-20T17:24:23.852Z,6.90
2018-12-20T17:26:51.311Z,7.00
2018-12-20T17:29:18.741Z,7.00
2018-12-20T17:31:46.191Z,7.10
2018-12-20T17:34:13.825Z,7.10
2018-12-20T17:36:41.283Z,7.10
2018-12-20T17:39:08.774Z,7.10
2018-12-20T17:41:36.253Z,7.10
2018-12-20T17:44:04.379Z,7.20
2018-12-20T17:46:32.821Z,7.20
2018-12-20T17:49:00.310Z,7.20
2018-12-20T17:51:27.846Z,7.30
2018-12-20T17:53:55.311Z,7.30
2018-12-20T17:56:22.755Z,7.40
2018-12-20T17:58:51.114Z,7.40
2018-12-20T18:01:18.573Z,7.40
2018-12-20T18:03:46.033Z,7.40
2018-12-20T18:06:13.470Z,7.30
2018-12-20T18:08:40.955Z,7.40
2018-12-20T18:11:08.379Z,7.50
2018-12-20T18:13:35.840Z,7.50
2018-12-20T18:16:03.347Z,7.60
2018-12-20T18:18:30.810Z,7.60
2018-12-20T18:20:58.275Z,7.60
2018-12-20T18:23:25.719Z,7.70
2018-12-20T18:25:53.287Z,7.70
2018-12-20T18:28:20.834Z,7.70
2018-12-20T18:30:48.421Z,7.50
2018-12-20T18:33:15.874Z,7.50
2018-12-20T18:35:43.362Z,7.30
2018-12-20T18:38:10.862Z,7.20
2018-12-20T18:40:38.316Z,7.10
2018-12-20T18:43:05.810Z,7.10
2018-12-20T18:45:33.261Z,7.00
2018-12-20T18:48:00.704Z,6.90
2018-12-20T18:50:28.161Z,6.80
2018-12-20T18:52:56.552Z,6.80
2018-12-20T18:55:24.000Z,6.90
2018-12-20T18:57:51.457Z,7.10
2018-12-20T19:00:18.916Z,7.00
2018-12-20T19:02:46.390Z,7.10
2018-12-20T19:05:13.841Z,7.10
2018-12-20T19:07:41.277Z,7.20
2018-12-20T19:10:08.847Z,7.30
2018-12-20T19:12:36.286Z,7.20
2018-12-20T19:15:04.384Z,7.10
2018-12-20T19:17:31.843Z,7.00
2018-12-20T19:19:59.280Z,7.10
2018-12-20T19:22:26.761Z,7.10
2018-12-20T19:24:54.200Z,6.90
2018-12-20T19:27:21.700Z,6.90
2018-12-20T19:29:49.231Z,6.80
2018-12-20T19:32:16.665Z,6.70
2018-12-20T19:34:44.113Z,6.70
2018-12-20T19:37:11.583Z,6.60
2018-12-20T19:39:39.031Z,6.70
2018-12-20T19:42:08.451Z,6.80
2018-12-20T19:44:35.914Z,6.90
2018-12-20T19:47:03.414Z,6.80
2018-12-20T19:49:30.885Z,6.80
2018-12-20T19:51:58.319Z,6.80
2018-12-20T19:54:25.763Z,6.80
2018-12-20T19:56:53.238Z,6.80
2018-12-20T19:59:20.709Z,6.60
2018-12-20T20:01:48.150Z,6.70
2018-12-20T20:04:15.627Z,6.60
2018-12-20T20:06:43.102Z,6.60
2018-12-20T20:09:10.559Z,6.70
2018-12-20T20:11:38.031Z,6.80
2018-12-20T20:14:05.526Z,6.90
2018-12-20T20:16:32.986Z,6.90
2018-12-20T20:19:00.454Z,6.90
2018-12-20T20:21:27.941Z,7.00
2018-12-20T20:23:55.375Z,7.10
2018-12-20T20:26:22.883Z,7.20
2018-12-20T20:28:50.350Z,7.40
2018-12-20T20:31:17.836Z,7.40
2018-12-20T20:33:45.321Z,7.40
2018-12-20T20:36:12.778Z,7.50
2018-12-20T20:38:40.233Z,7.40
2018-12-20T20:41:07.740Z,7.50
2018-12-20T20:43:35.198Z,7.50
2018-12-20T20:46:02.651Z,7.50
2018-12-20T20:48:30.606Z,7.60
2018-12-20T20:50:59.401Z,7.70
2018-12-20T20:53:26.941Z,7.80
2018-12-20T20:55:54.421Z,7.80
2018-12-20T20:58:21.876Z,7.70
2018-12-20T21:00:49.346Z,7.70
2018-12-20T21:03:16.817Z,7.70
2018-12-20T21:05:44.266Z,7.60
2018-12-20T21:08:11.715Z,7.70
2018-12-20T21:10:39.166Z,7.80
2018-12-20T21:13:06.627Z,7.70
2018-12-20T21:15:34.057Z,7.70
2018-12-20T21:18:01.603Z,7.70
2018-12-20T21:20:30.787Z,7.50
2018-12-20T21:22:58.525Z,7.50
2018-12-20T21:25:26.032Z,7.40
2018-12-20T21:27:53.490Z,7.40
2018-12-20T21:30:21.014Z,7.50
2018-12-20T21:32:48.509Z,7.50
2018-12-20T21:35:16.003Z,7.50
2018-12-20T21:37:43.474Z,7.50
2018-12-20T21:40:10.979Z,7.60
2018-12-20T21:42:38.433Z,7.70
2018-12-20T21:45:06.723Z,7.60
2018-12-20T21:47:34.183Z,7.50
2018-12-20T21:50:01.644Z,7.70
2018-12-20T21:52:29.114Z,7.80
2018-12-20T21:54:56.559Z,7.80
2018-12-20T21:57:24.090Z,7.80
2018-12-20T21:59:51.592Z,7.90
2018-12-20T22:02:19.074Z,7.90
2018-12-20T22:04:46.508Z,8.00
2018-12-20T22:07:13.981Z,8.10
2018-12-20T22:09:41.444Z,8.00
2018-12-20T22:12:08.899Z,8.10
2018-12-20T22:14:36.321Z,8.10
2018-12-20T22:17:03.843Z,8.10
2018-12-20T22:19:31.276Z,8.10
2018-12-20T22:21:58.717Z,8.00
2018-12-20T22:24:26.159Z,8.10
2018-12-20T22:26:53.609Z,8.10
2018-12-20T22:29:21.055Z,8.10
2018-12-20T22:31:48.522Z,8.20
2018-12-20T22:34:15.970Z,8.30
2018-12-20T22:36:43.425Z,8.30
2018-12-20T22:39:10.894Z,8.30
2018-12-20T22:41:38.382Z,8.30
2018-12-20T22:44:05.825Z,8.30
2018-12-20T22:46:33.285Z,8.30
2018-12-20T22:49:00.735Z,8.30
2018-12-20T22:51:28.174Z,8.30
2018-12-20T22:53:55.615Z,8.30
2018-12-20T22:56:23.057Z,8.40
2018-12-20T22:58:50.483Z,8.40
2018-12-20T23:01:17.930Z,8.50
2018-12-20T23:03:45.390Z,8.40
2018-12-20T23:06:13.723Z,8.30
2018-12-20T23:08:41.177Z,8.40
2018-12-20T23:11:08.637Z,8.40
2018-12-20T23:13:36.092Z,8.30
2018-12-20T23:16:03.556Z,8.30
2018-12-20T23:18:30.991Z,8.40
2018-12-20T23:21:04.829Z,8.40
2018-12-20T23:23:27.979Z,8.40
2018-12-20T23:25:55.435Z,8.40
2018-12-20T23:28:23.600Z,8.40
2018-12-20T23:30:51.026Z,8.40
2018-12-20T23:33:18.481Z,8.50
2018-12-20T23:35:45.921Z,8.50
2018-12-20T23:38:13.439Z,8.50
2018-12-20T23:40:40.868Z,8.40
2018-12-20T23:43:08.305Z,8.40
2018-12-20T23:45:35.744Z,8.50
2018-12-20T23:48:03.184Z,8.50
2018-12-20T23:50:30.658Z,8.60
2018-12-20T23:52:58.194Z,8.50
2018-12-20T23:55:25.641Z,8.40
2018-12-20T23:57:53.099Z,8.40
